Volcanoville, California
Current Conditions -  °F | °C
As of 5:55 AM on Saturday 20 Dec 2014 (Local Time) from KPVF Reporting Station
Overcast Overcast  
Wind Chill: 45°   Ceiling: 200
Heat Index: 45°   Visibility: 0mi
Dew Point: 45°   Wind: 0mph
Humidity: 100%   Direction: NA
Pressure: 30.16"   Gusts: NA
Location:  38.9159°N, 120.725°W
Report Text: KPVF 201355Z AUTO 00000KT M1/4SM OVC002 07/07 A3016 RMK AO1 P0004
Loading
Personal Weather Stations






























Interactive Weather Map New forecast layout! Learn more

10-Day Weather Forecast

Advertisements
Track Severe Weather on mobile